createdAt,value
2017-06-22T00:00:14.473Z,63.00
2017-06-22T00:02:41.785Z,62.90
2017-06-22T00:05:08.780Z,62.90
2017-06-22T00:07:36.070Z,62.80
2017-06-22T00:10:03.014Z,62.80
2017-06-22T00:12:29.899Z,63.00
2017-06-22T00:14:56.865Z,63.10
2017-06-22T00:17:24.202Z,63.90
2017-06-22T00:19:51.099Z,63.90
2017-06-22T00:22:18.006Z,64.30
2017-06-22T00:24:44.961Z,64.50
2017-06-22T00:27:12.316Z,64.50
2017-06-22T00:29:39.589Z,64.40
2017-06-22T00:32:06.514Z,64.40
2017-06-22T00:34:33.794Z,64.40
2017-06-22T00:37:00.705Z,64.40
2017-06-22T00:39:27.629Z,64.20
2017-06-22T00:41:54.603Z,64.20
2017-06-22T00:44:21.486Z,64.20
2017-06-22T00:46:48.434Z,64.30
2017-06-22T00:49:15.329Z,64.40
2017-06-22T00:51:42.209Z,64.30
2017-06-22T00:54:09.167Z,64.50
2017-06-22T00:56:36.049Z,64.90
2017-06-22T00:59:02.946Z,65.10
2017-06-22T01:01:29.970Z,65.20
2017-06-22T01:03:56.917Z,65.20
2017-06-22T01:06:23.870Z,65.40
2017-06-22T01:08:51.219Z,65.60
2017-06-22T01:11:18.168Z,65.60
2017-06-22T01:13:45.517Z,65.80
2017-06-22T01:16:12.442Z,65.80
2017-06-22T01:18:39.433Z,66.00
2017-06-22T01:21:06.722Z,66.00
2017-06-22T01:23:33.677Z,66.00
2017-06-22T01:26:00.662Z,65.90
2017-06-22T01:28:27.614Z,65.90
2017-06-22T01:30:54.933Z,66.10
2017-06-22T01:33:21.834Z,66.10
2017-06-22T01:35:49.106Z,66.20
2017-06-22T01:38:16.026Z,66.30
2017-06-22T01:40:43.302Z,66.70
2017-06-22T01:43:10.194Z,66.70
2017-06-22T01:45:37.109Z,67.00
2017-06-22T01:48:04.001Z,67.20
2017-06-22T01:50:31.285Z,67.20
2017-06-22T01:52:58.205Z,67.20
2017-06-22T01:55:25.481Z,67.20
2017-06-22T01:57:52.393Z,67.20
2017-06-22T02:00:19.450Z,67.20
2017-06-22T02:02:46.572Z,67.20
2017-06-22T02:05:13.734Z,67.80
2017-06-22T02:07:40.694Z,67.70
2017-06-22T02:10:07.717Z,67.50
2017-06-22T02:12:34.693Z,67.50
2017-06-22T02:15:01.661Z,67.50
2017-06-22T02:17:28.545Z,67.80
2017-06-22T02:19:55.441Z,67.80
2017-06-22T02:22:22.802Z,68.10
2017-06-22T02:24:50.102Z,68.00
2017-06-22T02:27:17.097Z,68.10
2017-06-22T02:29:44.456Z,68.30
2017-06-22T02:32:11.735Z,68.40
2017-06-22T02:34:38.747Z,68.40
2017-06-22T02:37:05.638Z,68.60
2017-06-22T02:39:32.518Z,68.80
2017-06-22T02:41:59.447Z,68.70
2017-06-22T02:44:26.325Z,68.50
2017-06-22T02:46:53.218Z,68.50
2017-06-22T02:49:20.146Z,68.40
2017-06-22T02:51:47.066Z,68.50
2017-06-22T02:54:13.950Z,68.90
2017-06-22T02:56:40.881Z,69.20
2017-06-22T02:59:07.761Z,69.50
2017-06-22T03:01:34.647Z,69.30
2017-06-22T03:04:01.584Z,69.30
2017-06-22T03:06:28.458Z,69.60
2017-06-22T03:08:55.735Z,70.00
2017-06-22T03:11:22.693Z,70.00
2017-06-22T03:13:49.569Z,69.90
2017-06-22T03:16:16.454Z,70.10
2017-06-22T03:18:43.785Z,70.30
2017-06-22T03:21:10.676Z,70.30
2017-06-22T03:23:37.580Z,70.60
2017-06-22T03:26:04.530Z,70.60
2017-06-22T03:28:31.809Z,70.60
2017-06-22T03:30:58.697Z,70.60
2017-06-22T03:33:25.633Z,70.60
2017-06-22T03:35:52.520Z,70.80
2017-06-22T03:38:19.810Z,70.50
2017-06-22T03:40:46.726Z,70.50
2017-06-22T03:43:14.013Z,70.60
2017-06-22T03:45:41.038Z,70.60
2017-06-22T03:48:08.327Z,70.70
2017-06-22T03:50:35.219Z,70.70
2017-06-22T03:53:02.134Z,70.40
2017-06-22T03:55:29.109Z,70.10
2017-06-22T03:57:56.001Z,70.10
2017-06-22T04:00:22.956Z,70.00
2017-06-22T04:02:49.834Z,70.20
2017-06-22T04:05:16.721Z,69.90
2017-06-22T04:07:43.657Z,69.70
2017-06-22T04:10:10.939Z,69.90
2017-06-22T04:12:37.817Z,69.90
2017-06-22T04:15:04.749Z,70.10
2017-06-22T04:17:31.632Z,70.20
2017-06-22T04:19:58.513Z,70.00
2017-06-22T04:22:25.437Z,70.00
2017-06-22T04:24:52.706Z,69.90
2017-06-22T04:27:19.585Z,69.90
2017-06-22T04:29:46.533Z,69.60
2017-06-22T04:32:13.418Z,69.70
2017-06-22T04:34:40.701Z,70.00
2017-06-22T04:37:08.026Z,70.00
2017-06-22T04:39:35.304Z,69.60
2017-06-22T04:42:02.221Z,69.60
2017-06-22T04:44:29.543Z,69.10
2017-06-22T04:46:56.437Z,69.10
2017-06-22T04:49:23.717Z,68.80
2017-06-22T04:51:50.717Z,68.80
2017-06-22T04:54:17.606Z,69.10
2017-06-22T04:56:44.489Z,68.50
2017-06-22T04:59:11.413Z,68.80
2017-06-22T05:01:38.406Z,68.70
2017-06-22T05:04:05.699Z,68.60
2017-06-22T05:06:32.614Z,68.60
2017-06-22T05:08:59.996Z,68.80
2017-06-22T05:11:26.925Z,68.80
2017-06-22T05:13:54.261Z,68.00
2017-06-22T05:16:21.209Z,68.00
2017-06-22T05:18:48.134Z,68.00
2017-06-22T05:21:15.059Z,67.90
2017-06-22T05:23:41.989Z,67.70
2017-06-22T05:26:08.924Z,67.70
2017-06-22T05:28:35.813Z,67.60
2017-06-22T05:31:02.713Z,67.30
2017-06-22T05:33:29.657Z,67.00
2017-06-22T05:35:56.545Z,67.30
2017-06-22T05:38:23.525Z,67.10
2017-06-22T05:40:50.882Z,66.70
2017-06-22T05:43:17.826Z,66.70
2017-06-22T05:45:44.707Z,66.10
2017-06-22T05:48:11.726Z,66.40
2017-06-22T05:50:39.072Z,66.30
2017-06-22T05:53:06.026Z,66.20
2017-06-22T05:55:33.350Z,66.00
2017-06-22T05:58:00.234Z,66.00
2017-06-22T06:00:27.890Z,65.90
2017-06-22T06:02:55.213Z,66.00
2017-06-22T06:05:22.184Z,66.00
2017-06-22T06:07:49.176Z,65.80
2017-06-22T06:10:16.103Z,65.70
2017-06-22T06:12:42.986Z,65.70
2017-06-22T06:15:09.973Z,65.20
2017-06-22T06:17:37.374Z,64.80
2017-06-22T06:20:04.257Z,64.80
2017-06-22T06:22:31.250Z,64.70
2017-06-22T06:24:58.208Z,64.60
2017-06-22T06:27:25.095Z,64.40
2017-06-22T06:29:51.983Z,63.80
2017-06-22T06:32:18.958Z,63.70
2017-06-22T06:34:45.849Z,63.30
2017-06-22T06:37:12.799Z,62.80
2017-06-22T06:39:40.154Z,62.50
2017-06-22T06:42:07.218Z,62.50
2017-06-22T06:44:34.557Z,61.30
2017-06-22T06:47:01.503Z,61.30
2017-06-22T06:49:28.398Z,61.80
2017-06-22T06:51:55.293Z,61.90
2017-06-22T06:54:22.485Z,61.80
2017-06-22T06:56:49.370Z,62.30
2017-06-22T06:59:16.259Z,62.50
2017-06-22T07:01:43.283Z,61.60
2017-06-22T07:04:10.189Z,61.80
2017-06-22T07:06:37.178Z,61.90
2017-06-22T07:09:04.142Z,61.50
2017-06-22T07:11:31.521Z,61.80
2017-06-22T07:13:58.401Z,61.80
2017-06-22T07:16:25.378Z,62.30
2017-06-22T07:18:52.667Z,61.20
2017-06-22T07:21:19.573Z,61.20
2017-06-22T07:23:46.511Z,61.50
2017-06-22T07:26:13.463Z,61.10
2017-06-22T07:28:40.358Z,61.50
2017-06-22T07:31:07.362Z,61.80
2017-06-22T07:33:34.655Z,61.90
2017-06-22T07:36:01.543Z,61.90
2017-06-22T07:38:28.642Z,61.70
2017-06-22T07:40:55.557Z,61.70
2017-06-22T07:43:22.441Z,61.60
2017-06-22T07:45:49.446Z,61.80
2017-06-22T07:48:16.394Z,61.60
2017-06-22T07:50:43.337Z,61.30
2017-06-22T07:53:10.270Z,61.20
2017-06-22T07:55:37.233Z,61.00
2017-06-22T07:58:04.590Z,60.90
2017-06-22T08:00:31.539Z,61.00
2017-06-22T08:02:58.822Z,60.20
2017-06-22T08:05:25.762Z,60.20
2017-06-22T08:07:52.725Z,59.80
2017-06-22T08:10:19.611Z,59.80
2017-06-22T08:12:46.573Z,59.60
2017-06-22T08:15:13.625Z,59.50
2017-06-22T08:17:40.909Z,59.10
2017-06-22T08:20:07.821Z,59.10
2017-06-22T08:22:35.179Z,59.60
2017-06-22T08:25:02.074Z,59.60
2017-06-22T08:27:28.957Z,59.10
2017-06-22T08:29:55.901Z,58.80
2017-06-22T08:32:22.865Z,58.50
2017-06-22T08:34:50.365Z,59.20
2017-06-22T08:37:17.290Z,59.20
2017-06-22T08:39:44.625Z,58.90
2017-06-22T08:42:11.978Z,58.70
2017-06-22T08:44:38.930Z,58.80
2017-06-22T08:47:06.222Z,58.20
2017-06-22T08:49:33.533Z,58.20
2017-06-22T08:52:00.426Z,58.10
2017-06-22T08:54:27.329Z,57.80
2017-06-22T08:56:54.687Z,57.80
2017-06-22T08:59:22.052Z,57.30
2017-06-22T09:01:49.396Z,57.30
2017-06-22T09:04:16.758Z,57.10
2017-06-22T09:06:44.110Z,56.80
2017-06-22T09:09:11.471Z,57.50
2017-06-22T09:11:38.818Z,58.50
2017-06-22T09:14:05.769Z,58.50
2017-06-22T09:16:32.664Z,57.90
2017-06-22T09:18:59.653Z,57.50
2017-06-22T09:21:26.542Z,57.10
2017-06-22T09:23:53.450Z,56.80
2017-06-22T09:26:20.380Z,57.20
2017-06-22T09:28:48.103Z,57.10
2017-06-22T09:31:15.015Z,57.10
2017-06-22T09:33:41.947Z,56.30
2017-06-22T09:36:08.843Z,55.40
2017-06-22T09:38:35.738Z,55.30
2017-06-22T09:41:02.790Z,55.00
2017-06-22T09:43:29.685Z,54.90
2017-06-22T09:45:56.724Z,55.00
2017-06-22T09:48:23.646Z,55.20
2017-06-22T09:50:50.937Z,54.70
2017-06-22T09:53:17.818Z,54.70
2017-06-22T09:55:44.778Z,54.80
2017-06-22T09:58:11.763Z,54.50
2017-06-22T10:00:38.653Z,53.90
2017-06-22T10:03:05.577Z,54.40
2017-06-22T10:05:32.747Z,55.20
2017-06-22T10:07:59.641Z,54.70
2017-06-22T10:10:26.906Z,54.40
2017-06-22T10:12:53.814Z,54.40
2017-06-22T10:15:21.103Z,53.90
2017-06-22T10:17:48.069Z,53.90
2017-06-22T10:20:14.957Z,53.70
2017-06-22T10:22:41.862Z,54.90
2017-06-22T10:25:08.809Z,55.00
2017-06-22T10:27:35.736Z,54.70
2017-06-22T10:30:02.626Z,53.90
2017-06-22T10:32:29.557Z,54.40
2017-06-22T10:34:56.533Z,54.20
2017-06-22T10:37:23.426Z,53.80
2017-06-22T10:39:50.362Z,53.80
2017-06-22T10:42:17.262Z,53.70
2017-06-22T10:44:44.674Z,53.90
2017-06-22T10:47:11.673Z,54.00
2017-06-22T10:49:38.622Z,53.80
2017-06-22T10:52:05.569Z,53.80
2017-06-22T10:54:32.557Z,53.50
2017-06-22T10:56:59.476Z,54.20
2017-06-22T10:59:26.821Z,53.50
2017-06-22T11:01:54.109Z,53.00
2017-06-22T11:04:21.122Z,53.00
2017-06-22T11:06:48.458Z,53.60
2017-06-22T11:09:15.425Z,53.60
2017-06-22T11:11:42.776Z,53.50
2017-06-22T11:14:09.713Z,53.50
2017-06-22T11:16:36.601Z,53.30
2017-06-22T11:19:03.490Z,53.40
2017-06-22T11:21:30.466Z,52.70
2017-06-22T11:23:57.749Z,52.30
2017-06-22T11:26:24.668Z,52.30
2017-06-22T11:28:51.997Z,51.80
2017-06-22T11:31:18.977Z,51.90
2017-06-22T11:33:46.321Z,52.50
2017-06-22T11:36:13.664Z,52.90
2017-06-22T11:38:40.570Z,52.90
2017-06-22T11:41:07.565Z,53.10
2017-06-22T11:43:34.517Z,53.30
2017-06-22T11:46:01.872Z,53.00
2017-06-22T11:48:28.825Z,53.00
2017-06-22T11:50:56.154Z,53.70
2017-06-22T11:53:23.573Z,53.70
2017-06-22T11:55:50.481Z,53.40
2017-06-22T11:58:17.830Z,50.70
2017-06-22T12:00:44.822Z,50.70
2017-06-22T12:03:11.741Z,50.40
2017-06-22T12:05:39.030Z,49.40
2017-06-22T12:08:05.939Z,49.40
2017-06-22T12:10:33.301Z,49.80
2017-06-22T12:13:00.638Z,50.20
2017-06-22T12:15:27.526Z,50.20
2017-06-22T12:17:54.466Z,50.50
2017-06-22T12:20:21.345Z,50.70
2017-06-22T12:22:48.321Z,50.60
2017-06-22T12:25:15.274Z,50.80
2017-06-22T12:27:42.549Z,51.20
2017-06-22T12:30:09.511Z,51.20
2017-06-22T12:32:36.534Z,52.10
2017-06-22T12:35:03.433Z,55.20
2017-06-22T12:37:30.349Z,57.40
2017-06-22T12:39:57.323Z,60.50
2017-06-22T12:42:24.301Z,61.10
2017-06-22T12:44:51.290Z,63.20
2017-06-22T12:47:18.314Z,66.70
2017-06-22T12:49:45.699Z,69.00
2017-06-22T12:52:12.643Z,69.00
2017-06-22T12:54:39.565Z,69.00
2017-06-22T12:57:06.863Z,67.10
2017-06-22T12:59:33.853Z,67.10
2017-06-22T13:02:01.247Z,64.90
2017-06-22T13:04:28.196Z,65.00
2017-06-22T13:06:55.142Z,64.70
2017-06-22T13:09:22.253Z,61.10
2017-06-22T13:11:49.605Z,62.80
2017-06-22T13:14:16.557Z,62.80
2017-06-22T13:16:43.909Z,60.60
2017-06-22T13:19:11.265Z,59.60
2017-06-22T13:21:38.633Z,58.50
2017-06-22T13:24:05.973Z,57.80
2017-06-22T13:26:32.929Z,57.80
2017-06-22T13:29:00.222Z,58.10
2017-06-22T13:31:27.142Z,58.10
2017-06-22T13:33:54.485Z,56.90
2017-06-22T13:36:21.877Z,57.70
2017-06-22T13:38:48.809Z,57.70
2017-06-22T13:41:15.730Z,57.90
2017-06-22T13:43:43.019Z,58.20
2017-06-22T13:46:10.178Z,58.20
2017-06-22T13:48:37.065Z,59.10
2017-06-22T13:51:03.957Z,58.80
2017-06-22T13:53:30.891Z,56.50
2017-06-22T13:55:58.174Z,56.60
2017-06-22T13:58:25.064Z,56.60
2017-06-22T14:00:52.334Z,56.60
2017-06-22T14:03:19.682Z,58.30
2017-06-22T14:05:46.625Z,58.30
2017-06-22T14:08:13.574Z,59.40
2017-06-22T14:10:40.865Z,59.60
2017-06-22T14:13:07.777Z,59.60
2017-06-22T14:15:34.766Z,60.30
2017-06-22T14:18:01.650Z,60.50
2017-06-22T14:20:28.610Z,63.50
2017-06-22T14:22:55.806Z,64.80
2017-06-22T14:25:22.693Z,66.30
2017-06-22T14:27:49.653Z,67.10
2017-06-22T14:30:16.597Z,67.30
2017-06-22T14:32:43.592Z,68.40
2017-06-22T14:35:10.498Z,68.60
2017-06-22T14:37:37.431Z,68.80
2017-06-22T14:40:04.309Z,69.10
2017-06-22T14:42:31.233Z,69.60
2017-06-22T14:44:58.175Z,69.40
2017-06-22T14:47:25.070Z,69.30
2017-06-22T14:49:52.053Z,69.50
2017-06-22T14:52:19.025Z,69.70
2017-06-22T14:54:46.381Z,69.70
2017-06-22T14:57:13.733Z,69.50
2017-06-22T14:59:40.665Z,69.50
2017-06-22T15:02:07.550Z,69.70
2017-06-22T15:04:34.474Z,69.70
2017-06-22T15:07:01.825Z,69.00
2017-06-22T15:09:28.769Z,69.00
2017-06-22T15:11:55.718Z,69.20
2017-06-22T15:14:22.665Z,69.20
2017-06-22T15:16:49.553Z,69.00
2017-06-22T15:19:16.495Z,68.50
2017-06-22T15:21:43.385Z,68.10
2017-06-22T15:24:10.287Z,68.10
2017-06-22T15:26:37.203Z,67.40
2017-06-22T15:29:04.898Z,68.40
2017-06-22T15:31:31.782Z,68.50
2017-06-22T15:33:58.892Z,69.90
2017-06-22T15:36:25.801Z,71.50
2017-06-22T15:38:53.101Z,75.90
2017-06-22T15:41:20.025Z,75.90
2017-06-22T15:43:47.045Z,76.10
2017-06-22T15:46:13.993Z,74.70
2017-06-22T15:48:41.273Z,71.50
2017-06-22T15:51:08.196Z,71.50
2017-06-22T15:53:35.702Z,70.70
2017-06-22T15:56:02.606Z,70.70
2017-06-22T15:58:29.964Z,70.10
2017-06-22T16:00:57.318Z,69.70
2017-06-22T16:03:24.681Z,69.70
2017-06-22T16:05:52.009Z,68.50
2017-06-22T16:08:18.898Z,68.50
2017-06-22T16:10:45.790Z,69.00
2017-06-22T16:13:12.729Z,69.20
2017-06-22T16:15:39.634Z,69.20
2017-06-22T16:18:06.550Z,68.90
2017-06-22T16:20:33.501Z,68.50
2017-06-22T16:23:00.859Z,68.10
2017-06-22T16:25:28.209Z,68.30
2017-06-22T16:27:55.535Z,68.90
2017-06-22T16:30:22.511Z,68.90
2017-06-22T16:32:49.869Z,66.70
2017-06-22T16:35:17.197Z,65.00
2017-06-22T16:37:44.081Z,65.00
2017-06-22T16:40:11.377Z,64.30
2017-06-22T16:42:38.489Z,64.30
2017-06-22T16:45:05.778Z,63.60
2017-06-22T16:47:32.770Z,63.60
2017-06-22T16:49:59.725Z,64.10
2017-06-22T16:52:27.018Z,62.90
2017-06-22T16:54:53.918Z,62.90
2017-06-22T16:57:20.861Z,61.00
2017-06-22T16:59:48.141Z,61.80
2017-06-22T17:02:15.061Z,61.80
2017-06-22T17:04:42.413Z,61.50
2017-06-22T17:07:09.311Z,61.50
2017-06-22T17:09:36.201Z,61.90
2017-06-22T17:12:03.146Z,60.30
2017-06-22T17:14:30.099Z,58.40
2017-06-22T17:16:56.985Z,56.70
2017-06-22T17:19:23.893Z,55.20
2017-06-22T17:21:51.213Z,51.70
2017-06-22T17:24:18.184Z,51.80
2017-06-22T17:26:45.135Z,50.00
2017-06-22T17:29:12.185Z,48.80
2017-06-22T17:31:39.485Z,48.20
2017-06-22T17:34:06.373Z,48.20
2017-06-22T17:36:33.301Z,48.00
2017-06-22T17:39:00.203Z,48.80
2017-06-22T17:41:27.119Z,50.10
2017-06-22T17:43:54.127Z,51.40
2017-06-22T17:46:21.010Z,52.50
2017-06-22T17:48:47.981Z,53.60
2017-06-22T17:51:15.317Z,56.20
2017-06-22T17:53:42.687Z,57.20
2017-06-22T17:56:10.026Z,57.90
2017-06-22T17:58:37.217Z,57.90
2017-06-22T18:01:04.171Z,58.60
2017-06-22T18:03:31.059Z,59.50
2017-06-22T18:05:58.046Z,60.00
2017-06-22T18:08:24.937Z,60.50
2017-06-22T18:10:51.949Z,60.80
2017-06-22T18:13:18.969Z,60.80
2017-06-22T18:15:46.330Z,60.40
2017-06-22T18:18:13.689Z,61.00
2017-06-22T18:20:41.074Z,61.30
2017-06-22T18:23:07.955Z,61.30
2017-06-22T18:25:34.918Z,61.00
2017-06-22T18:28:02.258Z,59.30
2017-06-22T18:30:29.227Z,59.30
2017-06-22T18:32:56.570Z,59.50
2017-06-22T18:35:23.663Z,59.60
2017-06-22T18:37:50.541Z,59.60
2017-06-22T18:40:17.437Z,59.70
2017-06-22T18:42:44.361Z,59.70
2017-06-22T18:45:11.258Z,59.60
2017-06-22T18:47:38.153Z,59.70
2017-06-22T18:50:05.512Z,60.60
2017-06-22T18:52:32.814Z,61.10
2017-06-22T18:54:59.702Z,61.10
2017-06-22T18:57:26.634Z,61.60
2017-06-22T18:59:53.566Z,61.90
2017-06-22T19:02:20.546Z,62.10
2017-06-22T19:04:48.114Z,63.10
2017-06-22T19:07:15.407Z,63.60
2017-06-22T19:09:42.553Z,63.50
2017-06-22T19:12:09.579Z,63.50
2017-06-22T19:14:36.863Z,63.80
2017-06-22T19:17:03.757Z,63.80
2017-06-22T19:19:30.874Z,64.20
2017-06-22T19:21:57.857Z,64.40
2017-06-22T19:24:25.213Z,64.60
2017-06-22T19:26:52.577Z,64.60
2017-06-22T19:29:19.870Z,64.80
2017-06-22T19:31:46.762Z,64.80
2017-06-22T19:34:13.715Z,66.20
2017-06-22T19:36:40.870Z,67.50
2017-06-22T19:39:08.232Z,68.30
2017-06-22T19:41:35.582Z,68.70
2017-06-22T19:44:02.889Z,68.10
2017-06-22T19:46:29.773Z,68.20
2017-06-22T19:48:56.725Z,68.20
2017-06-22T19:51:24.082Z,68.30
2017-06-22T19:53:51.236Z,68.30
2017-06-22T19:56:18.172Z,68.70
2017-06-22T19:58:45.062Z,68.50
2017-06-22T20:01:11.949Z,68.60
2017-06-22T20:03:38.914Z,68.60
2017-06-22T20:06:05.802Z,68.50
2017-06-22T20:08:32.693Z,68.80
2017-06-22T20:10:59.653Z,68.90
2017-06-22T20:13:26.937Z,69.50
2017-06-22T20:15:53.829Z,69.50
2017-06-22T20:18:20.806Z,69.50
2017-06-22T20:20:48.118Z,70.60
2017-06-22T20:23:15.103Z,70.60
2017-06-22T20:25:42.042Z,71.40
2017-06-22T20:28:08.930Z,71.80
2017-06-22T20:30:35.821Z,71.40
2017-06-22T20:33:02.749Z,71.30
2017-06-22T20:35:29.637Z,71.10
2017-06-22T20:38:00.816Z,70.70
2017-06-22T20:40:27.705Z,70.70
2017-06-22T20:42:54.685Z,71.00
2017-06-22T20:45:21.629Z,70.70
2017-06-22T20:47:48.911Z,70.90
2017-06-22T20:50:15.822Z,70.90
2017-06-22T20:52:43.165Z,70.90
2017-06-22T20:55:10.082Z,70.90
2017-06-22T20:57:36.974Z,71.20
2017-06-22T21:00:04.294Z,70.70
2017-06-22T21:02:31.186Z,70.70
2017-06-22T21:04:58.083Z,71.20
2017-06-22T21:07:25.057Z,70.50
2017-06-22T21:09:52.345Z,69.60
2017-06-22T21:12:19.238Z,69.60
2017-06-22T21:14:46.169Z,68.40
2017-06-22T21:17:13.149Z,68.50
2017-06-22T21:19:40.501Z,67.00
2017-06-22T21:22:07.437Z,67.00
2017-06-22T21:24:34.397Z,67.00
2017-06-22T21:27:01.686Z,66.50
2017-06-22T21:29:28.622Z,66.50
2017-06-22T21:31:55.546Z,66.30
2017-06-22T21:34:22.841Z,66.50
2017-06-22T21:36:49.765Z,66.50
2017-06-22T21:39:16.653Z,66.80
2017-06-22T21:41:43.634Z,66.80
2017-06-22T21:44:10.737Z,66.60
2017-06-22T21:46:37.649Z,66.80
2017-06-22T21:49:04.949Z,66.40
2017-06-22T21:51:31.933Z,66.40
2017-06-22T21:53:58.826Z,66.00
2017-06-22T21:56:25.721Z,66.00
2017-06-22T21:58:52.682Z,66.40
2017-06-22T22:01:20.035Z,67.20
2017-06-22T22:03:47.326Z,67.30
2017-06-22T22:06:14.338Z,67.30
2017-06-22T22:08:41.692Z,66.90
2017-06-22T22:11:08.982Z,67.30
2017-06-22T22:13:35.998Z,67.30
2017-06-22T22:16:03.282Z,66.90
2017-06-22T22:18:30.169Z,66.90
2017-06-22T22:20:57.094Z,67.20
2017-06-22T22:23:24.085Z,66.80
2017-06-22T22:25:51.441Z,67.20
2017-06-22T22:28:18.793Z,66.90
2017-06-22T22:30:45.750Z,66.90
2017-06-22T22:33:13.029Z,67.40
2017-06-22T22:35:40.046Z,67.40
2017-06-22T22:38:07.331Z,68.50
2017-06-22T22:40:34.217Z,68.50
2017-06-22T22:43:01.201Z,68.50
2017-06-22T22:45:28.486Z,68.00
2017-06-22T22:47:55.418Z,68.10
2017-06-22T22:50:22.445Z,68.20
2017-06-22T22:52:49.725Z,67.90
2017-06-22T22:55:16.749Z,67.90
2017-06-22T22:57:44.199Z,67.80
2017-06-22T23:00:11.093Z,67.80
2017-06-22T23:02:37.989Z,67.50
2017-06-22T23:05:04.938Z,67.40
2017-06-22T23:07:31.833Z,67.30
2017-06-22T23:09:58.721Z,67.50
2017-06-22T23:12:25.687Z,67.30
2017-06-22T23:14:52.977Z,65.60
2017-06-22T23:17:19.881Z,65.60
2017-06-22T23:19:47.204Z,66.00
2017-06-22T23:22:14.230Z,66.00
2017-06-22T23:24:41.120Z,65.90
2017-06-22T23:27:08.581Z,66.50
2017-06-22T23:29:35.466Z,66.50
2017-06-22T23:32:02.374Z,66.50
2017-06-22T23:34:29.634Z,66.10
2017-06-22T23:36:56.981Z,65.60
2017-06-22T23:39:23.877Z,65.60
2017-06-22T23:41:50.874Z,65.70
2017-06-22T23:44:17.840Z,66.40
2017-06-22T23:46:44.773Z,66.50
2017-06-22T23:49:12.133Z,65.90
2017-06-22T23:51:39.481Z,66.10
2017-06-22T23:54:06.391Z,66.10
2017-06-22T23:56:33.369Z,66.30
2017-06-22T23:59:00.335Z,66.50
